sensor_id;sensor_type;location;lat;lon;timestamp;pressure;altitude;pressure_sealevel;temperature;humidity
28344;BME280;15597;50.914;6.638;2023-02-28T00:00:11;102139.94;;;5.78;48.31
28344;BME280;15597;50.914;6.638;2023-02-28T00:02:40;102139.03;;;5.76;48.67
28344;BME280;15597;50.914;6.638;2023-02-28T00:05:07;102141.56;;;5.73;48.75
28344;BME280;15597;50.914;6.638;2023-02-28T00:07:33;102145.00;;;5.73;49.36
28344;BME280;15597;50.914;6.638;2023-02-28T00:09:59;102145.94;;;5.75;49.21
28344;BME280;15597;50.914;6.638;2023-02-28T00:12:25;102143.31;;;5.74;49.25
28344;BME280;15597;50.914;6.638;2023-02-28T00:14:51;102142.41;;;5.73;49.12
28344;BME280;15597;50.914;6.638;2023-02-28T00:17:16;102139.81;;;5.72;48.96
28344;BME280;15597;50.914;6.638;2023-02-28T00:19:50;102136.25;;;5.68;49.22
28344;BME280;15597;50.914;6.638;2023-02-28T00:22:20;102138.75;;;5.65;49.40
28344;BME280;15597;50.914;6.638;2023-02-28T00:24:46;102146.59;;;5.66;49.21
28344;BME280;15597;50.914;6.638;2023-02-28T00:27:13;102143.09;;;5.64;49.09
28344;BME280;15597;50.914;6.638;2023-02-28T00:29:39;102137.06;;;5.65;49.00
28344;BME280;15597;50.914;6.638;2023-02-28T00:32:05;102144.84;;;5.65;49.09
28344;BME280;15597;50.914;6.638;2023-02-28T00:34:31;102137.00;;;5.64;49.27
28344;BME280;15597;50.914;6.638;2023-02-28T00:37:07;102139.59;;;5.62;48.71
28344;BME280;15597;50.914;6.638;2023-02-28T00:39:35;102145.63;;;5.63;48.89
28344;BME280;15597;50.914;6.638;2023-02-28T00:42:02;102149.13;;;5.63;49.16
28344;BME280;15597;50.914;6.638;2023-02-28T00:44:28;102145.56;;;5.60;49.29
28344;BME280;15597;50.914;6.638;2023-02-28T00:46:53;102147.25;;;5.58;48.75
28344;BME280;15597;50.914;6.638;2023-02-28T00:49:24;102143.75;;;5.55;48.94
28344;BME280;15597;50.914;6.638;2023-02-28T00:51:49;102143.66;;;5.52;49.22
28344;BME280;15597;50.914;6.638;2023-02-28T00:54:17;102137.59;;;5.52;49.31
28344;BME280;15597;50.914;6.638;2023-02-28T00:56:47;102145.41;;;5.52;49.10
28344;BME280;15597;50.914;6.638;2023-02-28T00:59:14;102149.69;;;5.50;49.40
28344;BME280;15597;50.914;6.638;2023-02-28T01:01:40;102143.59;;;5.49;49.33
28344;BME280;15597;50.914;6.638;2023-02-28T01:04:06;102149.69;;;5.50;49.64
28344;BME280;15597;50.914;6.638;2023-02-28T01:06:32;102144.41;;;5.47;49.36
28344;BME280;15597;50.914;6.638;2023-02-28T01:08:59;102147.84;;;5.46;49.37
28344;BME280;15597;50.914;6.638;2023-02-28T01:11:24;102146.94;;;5.44;49.23
28344;BME280;15597;50.914;6.638;2023-02-28T01:13:52;102152.88;;;5.39;49.35
28344;BME280;15597;50.914;6.638;2023-02-28T01:16:17;102150.22;;;5.36;49.53
28344;BME280;15597;50.914;6.638;2023-02-28T01:18:44;102153.66;;;5.35;49.16
28344;BME280;15597;50.914;6.638;2023-02-28T01:21:13;102155.34;;;5.35;49.05
28344;BME280;15597;50.914;6.638;2023-02-28T01:23:39;102160.53;;;5.35;49.09
28344;BME280;15597;50.914;6.638;2023-02-28T01:26:06;102146.69;;;5.34;49.25
28344;BME280;15597;50.914;6.638;2023-02-28T01:28:31;102155.31;;;5.33;48.89
28344;BME280;15597;50.914;6.638;2023-02-28T01:30:57;102149.22;;;5.31;49.10
28344;BME280;15597;50.914;6.638;2023-02-28T01:33:22;102154.28;;;5.28;49.33
28344;BME280;15597;50.914;6.638;2023-02-28T01:35:48;102149.91;;;5.25;49.33
28344;BME280;15597;50.914;6.638;2023-02-28T01:38:14;102144.66;;;5.22;49.36
28344;BME280;15597;50.914;6.638;2023-02-28T01:40:40;102140.25;;;5.20;48.97
28344;BME280;15597;50.914;6.638;2023-02-28T01:43:20;102148.88;;;5.19;49.23
28344;BME280;15597;50.914;6.638;2023-02-28T01:45:45;102149.72;;;5.18;49.29
28344;BME280;15597;50.914;6.638;2023-02-28T01:48:11;102144.44;;;5.15;49.12
28344;BME280;15597;50.914;6.638;2023-02-28T01:50:41;102151.31;;;5.12;49.03
28344;BME280;15597;50.914;6.638;2023-02-28T01:53:15;102142.59;;;5.09;49.18
28344;BME280;15597;50.914;6.638;2023-02-28T01:55:43;102145.13;;;5.07;49.23
28344;BME280;15597;50.914;6.638;2023-02-28T01:58:10;102145.13;;;5.07;49.42
28344;BME280;15597;50.914;6.638;2023-02-28T02:00:36;102145.13;;;5.07;49.67
28344;BME280;15597;50.914;6.638;2023-02-28T02:03:08;102139.84;;;5.04;49.30
28344;BME280;15597;50.914;6.638;2023-02-28T02:05:36;102132.91;;;5.03;49.28
28344;BME280;15597;50.914;6.638;2023-02-28T02:08:11;102139.69;;;4.98;49.29
28344;BME280;15597;50.914;6.638;2023-02-28T02:10:43;102132.75;;;4.97;49.88
28344;BME280;15597;50.914;6.638;2023-02-28T02:18:56;102121.53;;;4.98;50.18
28344;BME280;15597;50.914;6.638;2023-02-28T02:21:37;102120.69;;;4.99;50.29
28344;BME280;15597;50.914;6.638;2023-02-28T02:30:18;102125.88;;;4.99;50.53
28344;BME280;15597;50.914;6.638;2023-02-28T02:38:11;102108.78;;;5.07;50.68
28344;BME280;15597;50.914;6.638;2023-02-28T02:40:56;102110.63;;;5.11;50.62
28344;BME280;15597;50.914;6.638;2023-02-28T02:43:29;102110.69;;;5.13;50.37
28344;BME280;15597;50.914;6.638;2023-02-28T02:46:04;102104.69;;;5.16;50.24
28344;BME280;15597;50.914;6.638;2023-02-28T02:48:34;102110.78;;;5.18;50.35
28344;BME280;15597;50.914;6.638;2023-02-28T02:51:04;102110.00;;;5.20;50.30
28344;BME280;15597;50.914;6.638;2023-02-28T02:53:45;102110.88;;;5.21;49.92
28344;BME280;15597;50.914;6.638;2023-02-28T02:56:17;102116.97;;;5.23;49.73
28344;BME280;15597;50.914;6.638;2023-02-28T02:58:47;102108.41;;;5.25;49.86
28344;BME280;15597;50.914;6.638;2023-02-28T03:01:18;102117.03;;;5.26;49.64
28344;BME280;15597;50.914;6.638;2023-02-28T03:03:57;102109.25;;;5.26;49.83
28344;BME280;15597;50.914;6.638;2023-02-28T03:06:25;102104.06;;;5.26;49.91
28344;BME280;15597;50.914;6.638;2023-02-28T03:08:51;102114.44;;;5.26;49.67
28344;BME280;15597;50.914;6.638;2023-02-28T03:11:17;102111.00;;;5.27;49.59
28344;BME280;15597;50.914;6.638;2023-02-28T03:13:58;102108.41;;;5.25;49.75
28344;BME280;15597;50.914;6.638;2023-02-28T03:16:33;102114.50;;;5.28;50.21
28344;BME280;15597;50.914;6.638;2023-02-28T03:22:00;102107.59;;;5.28;50.02
28344;BME280;15597;50.914;6.638;2023-02-28T03:27:06;102101.47;;;5.26;49.91
28344;BME280;15597;50.914;6.638;2023-02-28T03:29:36;102107.56;;;5.26;49.76
28344;BME280;15597;50.914;6.638;2023-02-28T03:32:13;102104.88;;;5.23;49.73
28344;BME280;15597;50.914;6.638;2023-02-28T03:34:54;102104.00;;;5.23;49.35
28344;BME280;15597;50.914;6.638;2023-02-28T03:37:22;102110.91;;;5.22;49.60
28344;BME280;15597;50.914;6.638;2023-02-28T03:39:54;102104.81;;;5.20;49.37
28344;BME280;15597;50.914;6.638;2023-02-28T03:42:24;102098.66;;;5.17;49.17
28344;BME280;15597;50.914;6.638;2023-02-28T03:44:58;102103.75;;;5.14;48.93
28344;BME280;15597;50.914;6.638;2023-02-28T03:47:32;102097.56;;;5.08;49.26
28344;BME280;15597;50.914;6.638;2023-02-28T03:52:53;102107.63;;;4.96;48.89
28344;BME280;15597;50.914;6.638;2023-02-28T03:55:20;102106.66;;;4.91;48.95
28344;BME280;15597;50.914;6.638;2023-02-28T03:58:08;102105.63;;;4.84;49.05
28344;BME280;15597;50.914;6.638;2023-02-28T04:00:40;102104.50;;;4.76;48.78
28344;BME280;15597;50.914;6.638;2023-02-28T04:03:08;102106.00;;;4.67;48.72
28344;BME280;15597;50.914;6.638;2023-02-28T04:05:46;102100.63;;;4.60;48.92
28344;BME280;15597;50.914;6.638;2023-02-28T04:08:14;102108.28;;;4.55;49.18
28344;BME280;15597;50.914;6.638;2023-02-28T04:10:40;102117.59;;;4.48;49.11
28344;BME280;15597;50.914;6.638;2023-02-28T04:13:06;102116.59;;;4.43;49.26
28344;BME280;15597;50.914;6.638;2023-02-28T04:15:32;102108.66;;;4.37;49.25
28344;BME280;15597;50.914;6.638;2023-02-28T04:17:57;102109.41;;;4.34;49.45
28344;BME280;15597;50.914;6.638;2023-02-28T04:20:23;102115.41;;;4.32;49.38
28344;BME280;15597;50.914;6.638;2023-02-28T04:22:48;102116.25;;;4.31;49.46
28344;BME280;15597;50.914;6.638;2023-02-28T04:25:14;102115.31;;;4.29;49.29
28344;BME280;15597;50.914;6.638;2023-02-28T04:27:40;102111.81;;;4.27;49.58
28344;BME280;15597;50.914;6.638;2023-02-28T04:30:06;102113.47;;;4.24;49.13
28344;BME280;15597;50.914;6.638;2023-02-28T04:32:32;102121.19;;;4.23;49.46
28344;BME280;15597;50.914;6.638;2023-02-28T04:34:57;102116.78;;;4.20;49.14
28344;BME280;15597;50.914;6.638;2023-02-28T04:37:22;102123.63;;;4.18;49.75
28344;BME280;15597;50.914;6.638;2023-02-28T04:39:53;102113.19;;;4.15;49.34
28344;BME280;15597;50.914;6.638;2023-02-28T04:42:18;102119.16;;;4.13;49.80
28344;BME280;15597;50.914;6.638;2023-02-28T04:44:44;102119.06;;;4.09;49.44
28344;BME280;15597;50.914;6.638;2023-02-28T04:47:09;102124.09;;;4.05;49.66
28344;BME280;15597;50.914;6.638;2023-02-28T04:49:35;102126.59;;;4.02;49.55
28344;BME280;15597;50.914;6.638;2023-02-28T04:52:00;102123.06;;;3.98;49.89
28344;BME280;15597;50.914;6.638;2023-02-28T04:54:26;102126.31;;;3.92;49.95
28344;BME280;15597;50.914;6.638;2023-02-28T04:56:51;102134.78;;;3.87;50.06
28344;BME280;15597;50.914;6.638;2023-02-28T04:59:17;102128.59;;;3.82;49.80
28344;BME280;15597;50.914;6.638;2023-02-28T05:01:46;102134.44;;;3.76;49.75
28344;BME280;15597;50.914;6.638;2023-02-28T05:04:12;102136.91;;;3.71;50.10
28344;BME280;15597;50.914;6.638;2023-02-28T05:06:38;102135.00;;;3.67;50.25
28344;BME280;15597;50.914;6.638;2023-02-28T05:09:03;102142.66;;;3.62;50.22
28344;BME280;15597;50.914;6.638;2023-02-28T05:11:32;102132.13;;;3.58;50.01
28344;BME280;15597;50.914;6.638;2023-02-28T05:14:04;102134.72;;;3.58;50.73
28344;BME280;15597;50.914;6.638;2023-02-28T05:16:30;102140.78;;;3.58;50.46
28344;BME280;15597;50.914;6.638;2023-02-28T05:18:56;102133.84;;;3.57;50.40
28344;BME280;15597;50.914;6.638;2023-02-28T05:21:33;102130.34;;;3.55;50.13
28344;BME280;15597;50.914;6.638;2023-02-28T05:24:04;102137.28;;;3.56;50.66
28344;BME280;15597;50.914;6.638;2023-02-28T05:26:30;102134.72;;;3.58;50.25
28344;BME280;15597;50.914;6.638;2023-02-28T05:28:56;102136.47;;;3.59;50.71
28344;BME280;15597;50.914;6.638;2023-02-28T05:31:23;102136.47;;;3.59;50.51
28344;BME280;15597;50.914;6.638;2023-02-28T05:33:48;102134.78;;;3.59;50.71
28344;BME280;15597;50.914;6.638;2023-02-28T05:36:14;102144.31;;;3.60;50.66
28344;BME280;15597;50.914;6.638;2023-02-28T05:38:40;102140.09;;;3.64;51.20
28344;BME280;15597;50.914;6.638;2023-02-28T05:41:07;102139.31;;;3.67;51.16
28344;BME280;15597;50.914;6.638;2023-02-28T05:43:32;102135.09;;;3.70;50.98
28344;BME280;15597;50.914;6.638;2023-02-28T05:45:58;102134.34;;;3.73;50.94
28344;BME280;15597;50.914;6.638;2023-02-28T05:48:23;102146.47;;;3.74;50.86
28344;BME280;15597;50.914;6.638;2023-02-28T05:50:49;102149.94;;;3.74;51.06
28344;BME280;15597;50.914;6.638;2023-02-28T05:53:14;102134.34;;;3.73;50.81
28344;BME280;15597;50.914;6.638;2023-02-28T05:55:40;102138.59;;;3.71;50.87
28344;BME280;15597;50.914;6.638;2023-02-28T05:58:06;102139.44;;;3.70;50.84
28344;BME280;15597;50.914;6.638;2023-02-28T06:00:31;102143.84;;;3.72;50.87
28344;BME280;15597;50.914;6.638;2023-02-28T06:02:57;102134.31;;;3.71;51.22
28344;BME280;15597;50.914;6.638;2023-02-28T06:05:26;102134.34;;;3.73;51.04
28344;BME280;15597;50.914;6.638;2023-02-28T06:07:52;102136.09;;;3.74;51.29
28344;BME280;15597;50.914;6.638;2023-02-28T06:10:17;102140.41;;;3.73;51.17
28344;BME280;15597;50.914;6.638;2023-02-28T06:12:43;102131.75;;;3.73;51.16
28344;BME280;15597;50.914;6.638;2023-02-28T06:15:13;102139.53;;;3.73;50.97
28344;BME280;15597;50.914;6.638;2023-02-28T06:17:40;102139.53;;;3.73;50.99
28344;BME280;15597;50.914;6.638;2023-02-28T06:20:08;102145.63;;;3.75;51.10
28344;BME280;15597;50.914;6.638;2023-02-28T06:22:35;102147.38;;;3.76;50.91
28344;BME280;15597;50.914;6.638;2023-02-28T06:25:01;102144.78;;;3.76;50.71
28344;BME280;15597;50.914;6.638;2023-02-28T06:27:27;102149.13;;;3.75;51.22
28344;BME280;15597;50.914;6.638;2023-02-28T06:29:55;102155.16;;;3.76;50.60
28344;BME280;15597;50.914;6.638;2023-02-28T06:32:21;102162.09;;;3.77;50.90
28344;BME280;15597;50.914;6.638;2023-02-28T06:34:47;102160.34;;;3.76;50.78
28344;BME280;15597;50.914;6.638;2023-02-28T06:37:13;102163.75;;;3.75;50.95
28344;BME280;15597;50.914;6.638;2023-02-28T06:39:39;102161.97;;;3.72;50.99
28344;BME280;15597;50.914;6.638;2023-02-28T06:42:05;102172.25;;;3.71;51.26
28344;BME280;15597;50.914;6.638;2023-02-28T06:44:30;102167.91;;;3.70;50.78
28344;BME280;15597;50.914;6.638;2023-02-28T06:47:02;102175.59;;;3.68;50.67
28344;BME280;15597;50.914;6.638;2023-02-28T06:49:29;102177.31;;;3.68;50.94
28344;BME280;15597;50.914;6.638;2023-02-28T06:51:55;102179.09;;;3.69;51.27
28344;BME280;15597;50.914;6.638;2023-02-28T06:54:21;102180.84;;;3.70;51.30
28344;BME280;15597;50.914;6.638;2023-02-28T06:56:46;102181.69;;;3.69;50.98
28344;BME280;15597;50.914;6.638;2023-02-28T06:59:12;102184.28;;;3.69;51.14
28344;BME280;15597;50.914;6.638;2023-02-28T07:01:38;102189.34;;;3.65;51.42
28344;BME280;15597;50.914;6.638;2023-02-28T07:04:05;102196.13;;;3.62;51.47
28344;BME280;15597;50.914;6.638;2023-02-28T07:06:31;102196.09;;;3.60;51.10
28344;BME280;15597;50.914;6.638;2023-02-28T07:08:56;102194.34;;;3.61;51.08
28344;BME280;15597;50.914;6.638;2023-02-28T07:11:24;102193.50;;;3.60;50.93
28344;BME280;15597;50.914;6.638;2023-02-28T07:13:51;102196.09;;;3.60;50.95
28344;BME280;15597;50.914;6.638;2023-02-28T07:16:17;102199.59;;;3.62;51.09
28344;BME280;15597;50.914;6.638;2023-02-28T07:18:43;102196.19;;;3.63;51.78
28344;BME280;15597;50.914;6.638;2023-02-28T07:21:10;102198.91;;;3.68;51.65
28344;BME280;15597;50.914;6.638;2023-02-28T07:23:36;102194.72;;;3.72;51.50
28344;BME280;15597;50.914;6.638;2023-02-28T07:26:06;102198.25;;;3.74;51.78
28344;BME280;15597;50.914;6.638;2023-02-28T07:28:32;102199.25;;;3.77;51.59
28344;BME280;15597;50.914;6.638;2023-02-28T07:31:06;102195.81;;;3.78;51.88
28344;BME280;15597;50.914;6.638;2023-02-28T07:33:32;102199.34;;;3.80;51.94
28344;BME280;15597;50.914;6.638;2023-02-28T07:36:05;102204.63;;;3.84;51.89
28344;BME280;15597;50.914;6.638;2023-02-28T07:38:36;102202.06;;;3.85;51.89
28344;BME280;15597;50.914;6.638;2023-02-28T07:41:03;102200.47;;;3.89;51.45
28344;BME280;15597;50.914;6.638;2023-02-28T07:43:32;102200.50;;;3.90;51.39
28344;BME280;15597;50.914;6.638;2023-02-28T07:46:05;102196.25;;;3.92;51.77
28344;BME280;15597;50.914;6.638;2023-02-28T07:48:31;102201.59;;;3.97;51.77
28344;BME280;15597;50.914;6.638;2023-02-28T07:50:57;102205.19;;;4.02;51.86
28344;BME280;15597;50.914;6.638;2023-02-28T07:53:24;102200.97;;;4.06;52.30
28344;BME280;15597;50.914;6.638;2023-02-28T07:55:50;102205.47;;;4.12;52.43
28344;BME280;15597;50.914;6.638;2023-02-28T07:58:15;102202.19;;;4.17;52.05
28344;BME280;15597;50.914;6.638;2023-02-28T08:00:41;102208.38;;;4.22;51.99
28344;BME280;15597;50.914;6.638;2023-02-28T08:03:11;102203.34;;;4.26;51.85
28344;BME280;15597;50.914;6.638;2023-02-28T08:05:40;102212.03;;;4.28;51.84
28344;BME280;15597;50.914;6.638;2023-02-28T08:08:09;102212.97;;;4.30;51.51
28344;BME280;15597;50.914;6.638;2023-02-28T08:10:36;102208.72;;;4.32;51.77
28344;BME280;15597;50.914;6.638;2023-02-28T08:13:02;102208.72;;;4.32;52.00
28344;BME280;15597;50.914;6.638;2023-02-28T08:15:28;102210.50;;;4.34;52.13
28344;BME280;15597;50.914;6.638;2023-02-28T08:17:53;102208.06;;;4.39;51.99
28344;BME280;15597;50.914;6.638;2023-02-28T08:20:22;102209.84;;;4.42;51.84
28344;BME280;15597;50.914;6.638;2023-02-28T08:22:48;102210.84;;;4.45;51.97
28344;BME280;15597;50.914;6.638;2023-02-28T08:25:13;102205.75;;;4.48;51.72
28344;BME280;15597;50.914;6.638;2023-02-28T08:27:39;102213.59;;;4.51;51.40
28344;BME280;15597;50.914;6.638;2023-02-28T08:30:06;102205.81;;;4.51;51.55
28344;BME280;15597;50.914;6.638;2023-02-28T08:32:32;102212.81;;;4.54;51.19
28344;BME280;15597;50.914;6.638;2023-02-28T08:34:58;102205.94;;;4.56;51.57
28344;BME280;15597;50.914;6.638;2023-02-28T08:37:24;102212.94;;;4.59;51.35
28344;BME280;15597;50.914;6.638;2023-02-28T08:39:50;102213.03;;;4.62;51.43
28344;BME280;15597;50.914;6.638;2023-02-28T08:42:15;102214.81;;;4.63;51.30
28344;BME280;15597;50.914;6.638;2023-02-28T08:44:41;102210.53;;;4.65;50.92
28344;BME280;15597;50.914;6.638;2023-02-28T08:47:06;102217.56;;;4.69;51.06
28344;BME280;15597;50.914;6.638;2023-02-28T08:49:32;102214.25;;;4.75;51.15
28344;BME280;15597;50.914;6.638;2023-02-28T08:51:58;102209.97;;;4.75;50.65
28344;BME280;15597;50.914;6.638;2023-02-28T08:54:24;102211.72;;;4.76;50.79
28344;BME280;15597;50.914;6.638;2023-02-28T08:56:49;102214.47;;;4.81;50.76
28344;BME280;15597;50.914;6.638;2023-02-28T08:59:15;102212.78;;;4.83;50.62
28344;BME280;15597;50.914;6.638;2023-02-28T09:01:41;102211.13;;;4.85;50.24
28344;BME280;15597;50.914;6.638;2023-02-28T09:04:07;102213.84;;;4.90;50.32
28344;BME280;15597;50.914;6.638;2023-02-28T09:06:34;102218.28;;;4.94;50.17
28344;BME280;15597;50.914;6.638;2023-02-28T09:08:59;102220.94;;;4.97;50.24
28344;BME280;15597;50.914;6.638;2023-02-28T09:11:27;102215.84;;;5.00;49.88
28344;BME280;15597;50.914;6.638;2023-02-28T09:13:52;102214.25;;;5.05;50.18
28344;BME280;15597;50.914;6.638;2023-02-28T09:16:18;102215.22;;;5.09;50.11
28344;BME280;15597;50.914;6.638;2023-02-28T09:18:44;102211.00;;;5.12;50.32
28344;BME280;15597;50.914;6.638;2023-02-28T09:21:12;102205.88;;;5.16;49.93
28344;BME280;15597;50.914;6.638;2023-02-28T09:23:46;102199.09;;;5.21;50.20
28344;BME280;15597;50.914;6.638;2023-02-28T09:26:21;102204.44;;;5.27;50.48
28344;BME280;15597;50.914;6.638;2023-02-28T09:28:47;102199.44;;;5.33;50.33
28344;BME280;15597;50.914;6.638;2023-02-28T09:31:15;102193.50;;;5.37;50.52
28344;BME280;15597;50.914;6.638;2023-02-28T09:33:41;102194.50;;;5.43;50.39
28344;BME280;15597;50.914;6.638;2023-02-28T09:36:07;102191.97;;;5.46;50.53
28344;BME280;15597;50.914;6.638;2023-02-28T09:38:32;102193.75;;;5.48;50.29
28344;BME280;15597;50.914;6.638;2023-02-28T09:41:01;102197.34;;;5.53;50.83
28344;BME280;15597;50.914;6.638;2023-02-28T09:43:35;102194.91;;;5.60;50.88
28344;BME280;15597;50.914;6.638;2023-02-28T09:46:11;102200.22;;;5.64;50.65
28344;BME280;15597;50.914;6.638;2023-02-28T09:48:43;102198.63;;;5.69;50.72
28344;BME280;15597;50.914;6.638;2023-02-28T09:51:20;102196.09;;;5.73;50.53
28344;BME280;15597;50.914;6.638;2023-02-28T09:53:52;102200.53;;;5.77;50.74
28344;BME280;15597;50.914;6.638;2023-02-28T09:56:25;102191.97;;;5.81;50.86
28344;BME280;15597;50.914;6.638;2023-02-28T09:59:10;102194.63;;;5.84;50.56
28344;BME280;15597;50.914;6.638;2023-02-28T10:04:42;102199.19;;;5.93;49.82
28344;BME280;15597;50.914;6.638;2023-02-28T10:07:21;102199.22;;;5.94;50.27
28344;BME280;15597;50.914;6.638;2023-02-28T10:09:53;102204.53;;;5.99;50.14
28344;BME280;15597;50.914;6.638;2023-02-28T10:12:19;102199.47;;;6.04;50.09
28344;BME280;15597;50.914;6.638;2023-02-28T10:14:47;102194.38;;;6.08;49.65
28344;BME280;15597;50.914;6.638;2023-02-28T10:17:17;102193.56;;;6.11;50.24
28344;BME280;15597;50.914;6.638;2023-02-28T10:20:02;102198.81;;;6.14;49.97
28344;BME280;15597;50.914;6.638;2023-02-28T10:22:58;102199.75;;;6.16;50.45
28344;BME280;15597;50.914;6.638;2023-02-28T10:25:27;102198.13;;;6.21;50.05
28344;BME280;15597;50.914;6.638;2023-02-28T10:28:13;102200.84;;;6.27;50.56
28344;BME280;15597;50.914;6.638;2023-02-28T10:30:46;102193.13;;;6.31;49.46
28344;BME280;15597;50.914;6.638;2023-02-28T10:33:23;102194.94;;;6.35;49.51
28344;BME280;15597;50.914;6.638;2023-02-28T10:35:49;102200.31;;;6.41;50.05
28344;BME280;15597;50.914;6.638;2023-02-28T10:38:19;102192.56;;;6.44;50.47
28344;BME280;15597;50.914;6.638;2023-02-28T10:40:45;102197.00;;;6.48;49.79
28344;BME280;15597;50.914;6.638;2023-02-28T10:45:52;102196.28;;;6.57;50.64
28344;BME280;15597;50.914;6.638;2023-02-28T10:50:50;102193.03;;;6.67;49.96
28344;BME280;15597;50.914;6.638;2023-02-28T11:01:16;102166.47;;;6.82;48.66
28344;BME280;15597;50.914;6.638;2023-02-28T11:03:42;102170.03;;;6.87;49.04
28344;BME280;15597;50.914;6.638;2023-02-28T11:06:14;102167.44;;;6.89;49.67
28344;BME280;15597;50.914;6.638;2023-02-28T11:08:46;102171.03;;;6.94;49.65
28344;BME280;15597;50.914;6.638;2023-02-28T11:11:12;102168.50;;;6.99;48.90
28344;BME280;15597;50.914;6.638;2023-02-28T11:13:39;102171.22;;;7.04;48.53
28344;BME280;15597;50.914;6.638;2023-02-28T11:16:07;102155.66;;;7.08;48.10
28344;BME280;15597;50.914;6.638;2023-02-28T11:21:04;102152.38;;;7.19;48.51
28344;BME280;15597;50.914;6.638;2023-02-28T11:23:32;102159.41;;;7.23;47.96
28344;BME280;15597;50.914;6.638;2023-02-28T11:26:03;102150.78;;;7.25;48.22
28344;BME280;15597;50.914;6.638;2023-02-28T11:28:38;102156.09;;;7.33;48.39
28344;BME280;15597;50.914;6.638;2023-02-28T11:33:51;102154.44;;;7.38;47.66
28344;BME280;15597;50.914;6.638;2023-02-28T11:36:24;102149.28;;;7.41;47.04
28344;BME280;15597;50.914;6.638;2023-02-28T11:38:51;102153.72;;;7.45;47.27
28344;BME280;15597;50.914;6.638;2023-02-28T11:41:30;102149.38;;;7.44;47.61
28344;BME280;15597;50.914;6.638;2023-02-28T11:46:58;102141.66;;;7.51;46.98
28344;BME280;15597;50.914;6.638;2023-02-28T11:49:35;102144.38;;;7.57;46.95
28344;BME280;15597;50.914;6.638;2023-02-28T12:00:04;102152.47;;;7.75;48.21
28344;BME280;15597;50.914;6.638;2023-02-28T12:02:57;102143.78;;;7.77;48.92
28344;BME280;15597;50.914;6.638;2023-02-28T12:05:34;102143.84;;;7.81;48.07
28344;BME280;15597;50.914;6.638;2023-02-28T12:16:24;102144.03;;;7.92;46.50
28344;BME280;15597;50.914;6.638;2023-02-28T12:19:22;102140.56;;;7.93;47.15
28344;BME280;15597;50.914;6.638;2023-02-28T12:21:59;102145.00;;;7.99;46.88
28344;BME280;15597;50.914;6.638;2023-02-28T12:27:16;102148.53;;;8.04;46.29
28344;BME280;15597;50.914;6.638;2023-02-28T12:29:52;102146.84;;;8.06;46.65
28344;BME280;15597;50.914;6.638;2023-02-28T12:32:25;102128.63;;;8.11;46.36
28344;BME280;15597;50.914;6.638;2023-02-28T12:34:58;102135.59;;;8.12;45.78
28344;BME280;15597;50.914;6.638;2023-02-28T12:37:47;102122.56;;;8.10;46.12
28344;BME280;15597;50.914;6.638;2023-02-28T12:40:21;102118.25;;;8.14;45.74
28344;BME280;15597;50.914;6.638;2023-02-28T12:43:02;102112.16;;;8.13;45.48
28344;BME280;15597;50.914;6.638;2023-02-28T12:48:10;102109.59;;;8.18;46.35
28344;BME280;15597;50.914;6.638;2023-02-28T12:50:40;102106.19;;;8.22;46.04
28344;BME280;15597;50.914;6.638;2023-02-28T12:56:20;102104.50;;;8.27;46.35
28344;BME280;15597;50.914;6.638;2023-02-28T12:58:54;102106.28;;;8.30;46.12
28344;BME280;15597;50.914;6.638;2023-02-28T13:05:53;102082.84;;;8.34;47.20
28344;BME280;15597;50.914;6.638;2023-02-28T13:10:47;102083.94;;;8.49;47.36
28344;BME280;15597;50.914;6.638;2023-02-28T13:13:22;102066.69;;;8.60;46.84
28344;BME280;15597;50.914;6.638;2023-02-28T13:16:08;102072.03;;;8.73;47.07
28344;BME280;15597;50.914;6.638;2023-02-28T13:18:45;102077.34;;;8.82;46.55
28344;BME280;15597;50.914;6.638;2023-02-28T13:21:27;102077.47;;;8.98;46.73
28344;BME280;15597;50.914;6.638;2023-02-28T13:29:04;102066.50;;;9.41;46.15
28344;BME280;15597;50.914;6.638;2023-02-28T13:35:12;102069.34;;;9.73;45.59
28344;BME280;15597;50.914;6.638;2023-02-28T13:39:52;102061.66;;;10.11;44.55
28344;BME280;15597;50.914;6.638;2023-02-28T13:47:42;102055.78;;;10.74;44.51
28344;BME280;15597;50.914;6.638;2023-02-28T13:52:52;102054.06;;;10.98;43.94
28344;BME280;15597;50.914;6.638;2023-02-28T14:05:21;102044.38;;;11.68;41.75
28344;BME280;15597;50.914;6.638;2023-02-28T14:07:57;102037.38;;;11.76;41.15
28344;BME280;15597;50.914;6.638;2023-02-28T14:10:29;102037.31;;;11.89;41.20
28344;BME280;15597;50.914;6.638;2023-02-28T14:15:39;102031.13;;;12.15;40.52
28344;BME280;15597;50.914;6.638;2023-02-28T14:18:15;102026.69;;;12.27;40.31
28344;BME280;15597;50.914;6.638;2023-02-28T14:20:43;102028.28;;;12.49;40.44
28344;BME280;15597;50.914;6.638;2023-02-28T14:26:33;102022.03;;;12.75;40.57
28344;BME280;15597;50.914;6.638;2023-02-28T14:32:01;102012.22;;;12.95;40.51
28344;BME280;15597;50.914;6.638;2023-02-28T14:34:47;102023.38;;;13.18;39.76
28344;BME280;15597;50.914;6.638;2023-02-28T14:37:27;102017.06;;;13.39;39.90
28344;BME280;15597;50.914;6.638;2023-02-28T14:39:54;102013.41;;;13.57;39.60
28344;BME280;15597;50.914;6.638;2023-02-28T14:42:32;102013.34;;;13.63;39.38
28344;BME280;15597;50.914;6.638;2023-02-28T14:44:58;102002.53;;;13.85;39.21
28344;BME280;15597;50.914;6.638;2023-02-28T14:47:28;102009.34;;;14.03;38.22
28344;BME280;15597;50.914;6.638;2023-02-28T14:49:54;102007.53;;;14.07;37.03
28344;BME280;15597;50.914;6.638;2023-02-28T14:52:26;102005.88;;;13.99;36.73
28344;BME280;15597;50.914;6.638;2023-02-28T14:55:05;102008.50;;;14.01;36.86
28344;BME280;15597;50.914;6.638;2023-02-28T14:57:39;102008.34;;;14.12;36.86
28344;BME280;15597;50.914;6.638;2023-02-28T15:00:25;102000.97;;;14.37;37.14
28344;BME280;15597;50.914;6.638;2023-02-28T15:02:52;101998.09;;;14.53;36.24
28344;BME280;15597;50.914;6.638;2023-02-28T15:05:34;101995.09;;;14.20;36.00
28344;BME280;15597;50.914;6.638;2023-02-28T15:08:20;101995.59;;;13.82;36.27
28344;BME280;15597;50.914;6.638;2023-02-28T15:10:51;102004.47;;;13.69;35.92